sensor_id;sensor_type;location;lat;lon;timestamp;P1;durP1;ratioP1;P2;durP2;ratioP2
24335;SDS011;33098;52.400;16.880;2023-08-30T00:02:19;3.50;;;3.10;;
24335;SDS011;33098;52.400;16.880;2023-08-30T00:04:46;4.10;;;3.20;;
24335;SDS011;33098;52.400;16.880;2023-08-30T00:07:13;4.60;;;3.80;;
24335;SDS011;33098;52.400;16.880;2023-08-30T00:09:42;4.10;;;3.70;;
24335;SDS011;33098;52.400;16.880;2023-08-30T00:12:09;4.40;;;3.50;;
24335;SDS011;33098;52.400;16.880;2023-08-30T00:14:41;3.60;;;3.30;;
24335;SDS011;33098;52.400;16.880;2023-08-30T00:17:08;3.90;;;3.40;;
24335;SDS011;33098;52.400;16.880;2023-08-30T00:19:35;3.70;;;3.40;;
24335;SDS011;33098;52.400;16.880;2023-08-30T00:22:02;3.80;;;3.40;;
24335;SDS011;33098;52.400;16.880;2023-08-30T00:24:33;4.30;;;3.90;;
24335;SDS011;33098;52.400;16.880;2023-08-30T00:27:00;4.20;;;3.60;;
24335;SDS011;33098;52.400;16.880;2023-08-30T00:29:28;3.70;;;3.40;;
24335;SDS011;33098;52.400;16.880;2023-08-30T00:31:56;4.40;;;3.90;;
24335;SDS011;33098;52.400;16.880;2023-08-30T00:34:23;4.50;;;4.10;;
24335;SDS011;33098;52.400;16.880;2023-08-30T00:36:50;4.10;;;3.80;;
24335;SDS011;33098;52.400;16.880;2023-08-30T00:39:19;3.90;;;3.60;;
24335;SDS011;33098;52.400;16.880;2023-08-30T00:41:46;5.40;;;3.90;;
24335;SDS011;33098;52.400;16.880;2023-08-30T00:44:13;4.60;;;4.10;;
24335;SDS011;33098;52.400;16.880;2023-08-30T00:46:40;6.50;;;4.30;;
24335;SDS011;33098;52.400;16.880;2023-08-30T00:49:07;3.80;;;3.50;;
24335;SDS011;33098;52.400;16.880;2023-08-30T00:51:34;2.60;;;2.40;;
24335;SDS011;33098;52.400;16.880;2023-08-30T00:54:01;3.20;;;3.00;;
24335;SDS011;33098;52.400;16.880;2023-08-30T00:56:29;3.20;;;2.90;;
24335;SDS011;33098;52.400;16.880;2023-08-30T00:58:57;3.60;;;3.00;;
24335;SDS011;33098;52.400;16.880;2023-08-30T01:01:28;3.30;;;2.90;;
24335;SDS011;33098;52.400;16.880;2023-08-30T01:04:01;3.10;;;2.80;;
24335;SDS011;33098;52.400;16.880;2023-08-30T01:06:29;3.10;;;2.60;;
24335;SDS011;33098;52.400;16.880;2023-08-30T01:08:57;3.00;;;2.50;;
24335;SDS011;33098;52.400;16.880;2023-08-30T01:14:22;2.50;;;2.20;;
24335;SDS011;33098;52.400;16.880;2023-08-30T01:16:55;7.90;;;2.30;;
24335;SDS011;33098;52.400;16.880;2023-08-30T01:28:16;2.20;;;2.00;;
24335;SDS011;33098;52.400;16.880;2023-08-30T01:30:51;2.40;;;1.70;;
24335;SDS011;33098;52.400;16.880;2023-08-30T01:33:25;2.10;;;1.70;;
24335;SDS011;33098;52.400;16.880;2023-08-30T01:35:55;1.90;;;1.70;;
24335;SDS011;33098;52.400;16.880;2023-08-30T01:38:28;2.10;;;1.80;;
24335;SDS011;33098;52.400;16.880;2023-08-30T01:40:56;1.90;;;1.70;;
24335;SDS011;33098;52.400;16.880;2023-08-30T01:43:26;2.20;;;1.90;;
24335;SDS011;33098;52.400;16.880;2023-08-30T01:45:57;2.90;;;1.80;;
24335;SDS011;33098;52.400;16.880;2023-08-30T01:48:28;2.00;;;1.60;;
24335;SDS011;33098;52.400;16.880;2023-08-30T01:50:55;2.10;;;1.90;;
24335;SDS011;33098;52.400;16.880;2023-08-30T01:53:26;2.60;;;1.80;;
24335;SDS011;33098;52.400;16.880;2023-08-30T01:55:54;2.70;;;1.70;;
24335;SDS011;33098;52.400;16.880;2023-08-30T01:58:21;2.40;;;1.90;;
24335;SDS011;33098;52.400;16.880;2023-08-30T02:00:48;2.30;;;1.60;;
24335;SDS011;33098;52.400;16.880;2023-08-30T02:03:15;2.10;;;1.70;;
24335;SDS011;33098;52.400;16.880;2023-08-30T02:05:51;2.00;;;1.90;;
24335;SDS011;33098;52.400;16.880;2023-08-30T02:08:26;2.40;;;1.80;;
24335;SDS011;33098;52.400;16.880;2023-08-30T02:11:07;2.90;;;1.80;;
24335;SDS011;33098;52.400;16.880;2023-08-30T02:13:41;2.70;;;1.90;;
24335;SDS011;33098;52.400;16.880;2023-08-30T02:16:09;2.10;;;1.90;;
24335;SDS011;33098;52.400;16.880;2023-08-30T02:18:41;2.60;;;2.30;;
24335;SDS011;33098;52.400;16.880;2023-08-30T02:21:12;2.80;;;2.00;;
24335;SDS011;33098;52.400;16.880;2023-08-30T02:23:42;2.80;;;2.40;;
24335;SDS011;33098;52.400;16.880;2023-08-30T02:26:09;3.80;;;2.20;;
24335;SDS011;33098;52.400;16.880;2023-08-30T02:28:40;2.70;;;2.50;;
24335;SDS011;33098;52.400;16.880;2023-08-30T02:31:08;2.90;;;2.10;;
24335;SDS011;33098;52.400;16.880;2023-08-30T02:33:35;2.10;;;1.90;;
24335;SDS011;33098;52.400;16.880;2023-08-30T02:36:06;2.60;;;2.40;;
24335;SDS011;33098;52.400;16.880;2023-08-30T02:38:33;2.90;;;2.30;;
24335;SDS011;33098;52.400;16.880;2023-08-30T02:41:00;2.30;;;2.10;;
24335;SDS011;33098;52.400;16.880;2023-08-30T02:43:32;2.30;;;2.10;;
24335;SDS011;33098;52.400;16.880;2023-08-30T02:45:59;2.40;;;2.20;;
24335;SDS011;33098;52.400;16.880;2023-08-30T02:48:28;2.40;;;2.20;;
24335;SDS011;33098;52.400;16.880;2023-08-30T02:50:54;2.50;;;2.30;;
24335;SDS011;33098;52.400;16.880;2023-08-30T02:53:22;3.30;;;2.10;;
24335;SDS011;33098;52.400;16.880;2023-08-30T02:55:49;2.30;;;2.10;;
24335;SDS011;33098;52.400;16.880;2023-08-30T02:58:18;4.70;;;2.30;;
24335;SDS011;33098;52.400;16.880;2023-08-30T03:00:46;2.20;;;2.00;;
24335;SDS011;33098;52.400;16.880;2023-08-30T03:03:13;2.40;;;2.10;;
24335;SDS011;33098;52.400;16.880;2023-08-30T03:05:40;2.30;;;2.10;;
24335;SDS011;33098;52.400;16.880;2023-08-30T03:08:07;3.00;;;2.70;;
24335;SDS011;33098;52.400;16.880;2023-08-30T03:10:34;2.30;;;2.00;;
24335;SDS011;33098;52.400;16.880;2023-08-30T03:13:00;2.60;;;2.40;;
24335;SDS011;33098;52.400;16.880;2023-08-30T03:15:30;2.80;;;2.50;;
24335;SDS011;33098;52.400;16.880;2023-08-30T03:18:03;2.90;;;2.70;;
24335;SDS011;33098;52.400;16.880;2023-08-30T03:20:30;2.80;;;2.50;;
24335;SDS011;33098;52.400;16.880;2023-08-30T03:22:57;3.10;;;2.80;;
24335;SDS011;33098;52.400;16.880;2023-08-30T03:25:30;3.80;;;2.50;;
24335;SDS011;33098;52.400;16.880;2023-08-30T03:27:57;3.10;;;2.80;;
24335;SDS011;33098;52.400;16.880;2023-08-30T03:30:24;2.90;;;2.70;;
24335;SDS011;33098;52.400;16.880;2023-08-30T03:32:51;3.00;;;2.50;;
24335;SDS011;33098;52.400;16.880;2023-08-30T03:35:19;3.00;;;2.70;;
24335;SDS011;33098;52.400;16.880;2023-08-30T03:37:51;3.20;;;2.90;;
24335;SDS011;33098;52.400;16.880;2023-08-30T03:40:18;3.20;;;2.90;;
24335;SDS011;33098;52.400;16.880;2023-08-30T03:42:48;3.10;;;2.70;;
24335;SDS011;33098;52.400;16.880;2023-08-30T03:45:15;2.80;;;2.50;;
24335;SDS011;33098;52.400;16.880;2023-08-30T03:47:46;2.90;;;2.70;;
24335;SDS011;33098;52.400;16.880;2023-08-30T03:50:16;3.10;;;2.80;;
24335;SDS011;33098;52.400;16.880;2023-08-30T03:52:43;2.60;;;2.20;;
24335;SDS011;33098;52.400;16.880;2023-08-30T03:55:12;2.70;;;2.50;;
24335;SDS011;33098;52.400;16.880;2023-08-30T03:57:39;2.50;;;2.30;;
24335;SDS011;33098;52.400;16.880;2023-08-30T04:00:06;2.70;;;2.40;;
24335;SDS011;33098;52.400;16.880;2023-08-30T04:02:44;3.00;;;2.40;;
24335;SDS011;33098;52.400;16.880;2023-08-30T04:05:12;3.70;;;2.40;;
24335;SDS011;33098;52.400;16.880;2023-08-30T04:07:43;2.50;;;2.00;;
24335;SDS011;33098;52.400;16.880;2023-08-30T04:10:10;2.10;;;1.90;;
24335;SDS011;33098;52.400;16.880;2023-08-30T04:12:37;2.70;;;1.90;;
24335;SDS011;33098;52.400;16.880;2023-08-30T04:15:05;2.20;;;1.90;;
24335;SDS011;33098;52.400;16.880;2023-08-30T04:17:32;2.20;;;2.00;;
24335;SDS011;33098;52.400;16.880;2023-08-30T04:20:00;2.00;;;1.80;;
24335;SDS011;33098;52.400;16.880;2023-08-30T04:22:29;2.00;;;1.80;;
24335;SDS011;33098;52.400;16.880;2023-08-30T04:25:00;2.50;;;1.90;;
24335;SDS011;33098;52.400;16.880;2023-08-30T04:27:30;2.50;;;2.20;;
24335;SDS011;33098;52.400;16.880;2023-08-30T04:29:57;2.30;;;2.10;;
24335;SDS011;33098;52.400;16.880;2023-08-30T04:32:23;2.70;;;2.00;;
24335;SDS011;33098;52.400;16.880;2023-08-30T04:34:51;3.40;;;2.40;;
24335;SDS011;33098;52.400;16.880;2023-08-30T04:37:19;2.50;;;2.30;;
24335;SDS011;33098;52.400;16.880;2023-08-30T04:39:47;3.40;;;3.10;;
24335;SDS011;33098;52.400;16.880;2023-08-30T04:44:47;3.20;;;2.70;;
24335;SDS011;33098;52.400;16.880;2023-08-30T04:47:13;3.00;;;2.70;;
24335;SDS011;33098;52.400;16.880;2023-08-30T04:49:41;3.00;;;2.70;;
24335;SDS011;33098;52.400;16.880;2023-08-30T04:52:09;2.90;;;2.60;;
24335;SDS011;33098;52.400;16.880;2023-08-30T04:54:36;3.20;;;2.70;;
24335;SDS011;33098;52.400;16.880;2023-08-30T04:57:03;3.60;;;2.60;;
24335;SDS011;33098;52.400;16.880;2023-08-30T04:59:34;3.20;;;2.90;;
24335;SDS011;33098;52.400;16.880;2023-08-30T05:02:04;2.50;;;2.30;;
24335;SDS011;33098;52.400;16.880;2023-08-30T05:04:34;2.80;;;2.50;;
24335;SDS011;33098;52.400;16.880;2023-08-30T05:07:04;2.20;;;2.00;;
24335;SDS011;33098;52.400;16.880;2023-08-30T05:09:31;2.40;;;2.20;;
24335;SDS011;33098;52.400;16.880;2023-08-30T05:11:59;2.10;;;1.90;;
24335;SDS011;33098;52.400;16.880;2023-08-30T05:14:29;1.90;;;1.80;;
24335;SDS011;33098;52.400;16.880;2023-08-30T05:16:56;1.70;;;1.60;;
24335;SDS011;33098;52.400;16.880;2023-08-30T05:19:25;1.70;;;1.50;;
24335;SDS011;33098;52.400;16.880;2023-08-30T05:21:52;2.40;;;1.70;;
24335;SDS011;33098;52.400;16.880;2023-08-30T05:24:24;1.50;;;1.40;;
24335;SDS011;33098;52.400;16.880;2023-08-30T05:26:53;1.40;;;1.20;;
24335;SDS011;33098;52.400;16.880;2023-08-30T05:29:25;1.20;;;1.10;;
24335;SDS011;33098;52.400;16.880;2023-08-30T05:31:52;1.50;;;1.40;;
24335;SDS011;33098;52.400;16.880;2023-08-30T05:34:47;1.40;;;1.30;;
24335;SDS011;33098;52.400;16.880;2023-08-30T05:37:22;1.40;;;1.30;;
24335;SDS011;33098;52.400;16.880;2023-08-30T05:40:10;1.30;;;1.20;;
24335;SDS011;33098;52.400;16.880;2023-08-30T05:42:44;1.60;;;1.30;;
24335;SDS011;33098;52.400;16.880;2023-08-30T05:45:17;1.60;;;1.30;;
24335;SDS011;33098;52.400;16.880;2023-08-30T05:47:43;1.80;;;1.20;;
24335;SDS011;33098;52.400;16.880;2023-08-30T05:50:12;2.50;;;1.30;;
24335;SDS011;33098;52.400;16.880;2023-08-30T05:52:39;1.70;;;1.10;;
24335;SDS011;33098;52.400;16.880;2023-08-30T05:55:08;1.20;;;1.10;;
24335;SDS011;33098;52.400;16.880;2023-08-30T05:57:35;3.20;;;1.30;;
24335;SDS011;33098;52.400;16.880;2023-08-30T06:00:03;1.20;;;1.00;;
24335;SDS011;33098;52.400;16.880;2023-08-30T06:02:40;1.20;;;1.10;;
24335;SDS011;33098;52.400;16.880;2023-08-30T06:05:12;2.70;;;1.20;;
24335;SDS011;33098;52.400;16.880;2023-08-30T06:07:38;2.00;;;1.00;;
24335;SDS011;33098;52.400;16.880;2023-08-30T06:10:08;1.00;;;1.00;;
24335;SDS011;33098;52.400;16.880;2023-08-30T06:12:39;1.00;;;0.90;;
24335;SDS011;33098;52.400;16.880;2023-08-30T06:15:08;2.40;;;0.90;;
24335;SDS011;33098;52.400;16.880;2023-08-30T06:17:35;0.90;;;0.80;;
24335;SDS011;33098;52.400;16.880;2023-08-30T06:20:02;1.00;;;1.00;;
24335;SDS011;33098;52.400;16.880;2023-08-30T06:22:30;1.50;;;0.90;;
24335;SDS011;33098;52.400;16.880;2023-08-30T06:24:59;1.10;;;1.00;;
24335;SDS011;33098;52.400;16.880;2023-08-30T06:27:28;1.80;;;1.10;;
24335;SDS011;33098;52.400;16.880;2023-08-30T06:29:57;1.20;;;0.90;;
24335;SDS011;33098;52.400;16.880;2023-08-30T06:32:24;1.70;;;1.10;;
24335;SDS011;33098;52.400;16.880;2023-08-30T06:34:51;1.40;;;1.20;;
24335;SDS011;33098;52.400;16.880;2023-08-30T06:37:21;1.40;;;1.00;;
24335;SDS011;33098;52.400;16.880;2023-08-30T06:39:51;1.60;;;1.00;;
24335;SDS011;33098;52.400;16.880;2023-08-30T06:42:21;3.10;;;0.90;;
24335;SDS011;33098;52.400;16.880;2023-08-30T06:44:48;1.50;;;0.90;;
24335;SDS011;33098;52.400;16.880;2023-08-30T06:47:14;1.70;;;0.90;;
24335;SDS011;33098;52.400;16.880;2023-08-30T06:49:41;2.00;;;0.80;;
24335;SDS011;33098;52.400;16.880;2023-08-30T06:52:07;1.00;;;0.90;;
24335;SDS011;33098;52.400;16.880;2023-08-30T06:54:37;0.80;;;0.80;;
24335;SDS011;33098;52.400;16.880;2023-08-30T06:57:06;1.20;;;0.90;;
24335;SDS011;33098;52.400;16.880;2023-08-30T06:59:33;0.80;;;0.80;;
24335;SDS011;33098;52.400;16.880;2023-08-30T07:02:00;1.50;;;1.00;;
24335;SDS011;33098;52.400;16.880;2023-08-30T07:06:57;2.50;;;1.30;;
24335;SDS011;33098;52.400;16.880;2023-08-30T07:11:58;1.30;;;1.00;;
24335;SDS011;33098;52.400;16.880;2023-08-30T07:14:25;3.10;;;0.80;;
24335;SDS011;33098;52.400;16.880;2023-08-30T07:16:52;1.00;;;0.90;;
24335;SDS011;33098;52.400;16.880;2023-08-30T07:19:20;2.20;;;0.90;;
24335;SDS011;33098;52.400;16.880;2023-08-30T07:21:49;1.20;;;1.00;;
24335;SDS011;33098;52.400;16.880;2023-08-30T07:24:16;1.90;;;0.90;;
24335;SDS011;33098;52.400;16.880;2023-08-30T07:26:43;0.80;;;0.80;;
24335;SDS011;33098;52.400;16.880;2023-08-30T07:29:13;1.10;;;0.80;;
24335;SDS011;33098;52.400;16.880;2023-08-30T07:31:42;1.00;;;0.90;;
24335;SDS011;33098;52.400;16.880;2023-08-30T07:34:09;2.00;;;0.90;;
24335;SDS011;33098;52.400;16.880;2023-08-30T07:36:36;2.20;;;1.00;;
24335;SDS011;33098;52.400;16.880;2023-08-30T07:39:03;1.10;;;0.90;;
24335;SDS011;33098;52.400;16.880;2023-08-30T07:41:30;1.20;;;1.00;;
24335;SDS011;33098;52.400;16.880;2023-08-30T07:43:58;0.80;;;0.80;;
24335;SDS011;33098;52.400;16.880;2023-08-30T07:46:25;1.10;;;0.90;;
24335;SDS011;33098;52.400;16.880;2023-08-30T07:48:55;2.70;;;0.80;;
24335;SDS011;33098;52.400;16.880;2023-08-30T07:51:23;0.90;;;0.80;;
24335;SDS011;33098;52.400;16.880;2023-08-30T07:53:50;0.70;;;0.70;;
24335;SDS011;33098;52.400;16.880;2023-08-30T07:56:17;0.70;;;0.70;;
24335;SDS011;33098;52.400;16.880;2023-08-30T07:58:44;0.70;;;0.60;;
24335;SDS011;33098;52.400;16.880;2023-08-30T08:01:11;1.70;;;0.80;;
24335;SDS011;33098;52.400;16.880;2023-08-30T08:03:38;1.90;;;0.90;;
24335;SDS011;33098;52.400;16.880;2023-08-30T08:06:04;1.10;;;0.80;;
24335;SDS011;33098;52.400;16.880;2023-08-30T08:08:31;1.00;;;0.70;;
24335;SDS011;33098;52.400;16.880;2023-08-30T08:10:58;0.70;;;0.70;;
24335;SDS011;33098;52.400;16.880;2023-08-30T08:13:27;1.00;;;0.80;;
24335;SDS011;33098;52.400;16.880;2023-08-30T08:15:57;1.00;;;0.90;;
24335;SDS011;33098;52.400;16.880;2023-08-30T08:18:24;1.10;;;1.00;;
24335;SDS011;33098;52.400;16.880;2023-08-30T08:20:51;1.00;;;0.90;;
24335;SDS011;33098;52.400;16.880;2023-08-30T08:23:18;0.70;;;0.70;;
24335;SDS011;33098;52.400;16.880;2023-08-30T08:25:47;1.00;;;1.00;;
24335;SDS011;33098;52.400;16.880;2023-08-30T08:28:14;2.30;;;0.90;;
24335;SDS011;33098;52.400;16.880;2023-08-30T08:30:45;2.90;;;0.90;;
24335;SDS011;33098;52.400;16.880;2023-08-30T08:33:12;1.90;;;1.20;;
24335;SDS011;33098;52.400;16.880;2023-08-30T08:35:38;1.20;;;1.00;;
24335;SDS011;33098;52.400;16.880;2023-08-30T08:38:06;1.20;;;1.00;;
24335;SDS011;33098;52.400;16.880;2023-08-30T08:40:36;0.80;;;0.80;;
24335;SDS011;33098;52.400;16.880;2023-08-30T08:43:04;0.80;;;0.80;;
24335;SDS011;33098;52.400;16.880;2023-08-30T08:45:34;2.10;;;1.00;;
24335;SDS011;33098;52.400;16.880;2023-08-30T08:48:11;0.90;;;0.80;;
24335;SDS011;33098;52.400;16.880;2023-08-30T08:50:40;1.70;;;0.80;;
24335;SDS011;33098;52.400;16.880;2023-08-30T08:53:07;1.50;;;0.80;;
24335;SDS011;33098;52.400;16.880;2023-08-30T08:55:39;0.70;;;0.70;;
24335;SDS011;33098;52.400;16.880;2023-08-30T08:58:08;0.80;;;0.80;;
24335;SDS011;33098;52.400;16.880;2023-08-30T09:00:36;2.20;;;0.80;;
24335;SDS011;33098;52.400;16.880;2023-08-30T09:03:05;0.90;;;0.90;;
24335;SDS011;33098;52.400;16.880;2023-08-30T09:05:32;1.00;;;0.90;;
24335;SDS011;33098;52.400;16.880;2023-08-30T09:07:59;0.90;;;0.90;;
24335;SDS011;33098;52.400;16.880;2023-08-30T09:12:59;1.30;;;0.80;;
24335;SDS011;33098;52.400;16.880;2023-08-30T09:15:32;0.80;;;0.80;;
24335;SDS011;33098;52.400;16.880;2023-08-30T09:18:03;0.70;;;0.70;;
24335;SDS011;33098;52.400;16.880;2023-08-30T09:20:30;0.90;;;0.90;;
24335;SDS011;33098;52.400;16.880;2023-08-30T09:23:01;1.40;;;0.90;;
24335;SDS011;33098;52.400;16.880;2023-08-30T09:25:30;1.80;;;0.80;;
24335;SDS011;33098;52.400;16.880;2023-08-30T09:28:00;1.00;;;0.80;;
24335;SDS011;33098;52.400;16.880;2023-08-30T09:30:28;0.80;;;0.70;;
24335;SDS011;33098;52.400;16.880;2023-08-30T09:33:01;2.50;;;0.70;;
24335;SDS011;33098;52.400;16.880;2023-08-30T09:35:29;1.20;;;0.60;;
24335;SDS011;33098;52.400;16.880;2023-08-30T09:37:56;0.70;;;0.70;;
24335;SDS011;33098;52.400;16.880;2023-08-30T09:40:24;0.50;;;0.50;;
24335;SDS011;33098;52.400;16.880;2023-08-30T09:42:51;1.80;;;0.50;;
24335;SDS011;33098;52.400;16.880;2023-08-30T09:45:24;0.50;;;0.50;;
24335;SDS011;33098;52.400;16.880;2023-08-30T09:47:54;0.60;;;0.60;;
24335;SDS011;33098;52.400;16.880;2023-08-30T09:50:23;1.80;;;0.70;;
24335;SDS011;33098;52.400;16.880;2023-08-30T09:52:50;0.60;;;0.60;;
24335;SDS011;33098;52.400;16.880;2023-08-30T09:55:20;2.40;;;0.80;;
24335;SDS011;33098;52.400;16.880;2023-08-30T09:57:47;2.10;;;0.80;;
24335;SDS011;33098;52.400;16.880;2023-08-30T10:00:15;2.90;;;0.80;;
24335;SDS011;33098;52.400;16.880;2023-08-30T10:02:44;1.00;;;0.70;;
24335;SDS011;33098;52.400;16.880;2023-08-30T10:05:12;1.00;;;0.70;;
24335;SDS011;33098;52.400;16.880;2023-08-30T10:07:41;2.50;;;0.80;;
24335;SDS011;33098;52.400;16.880;2023-08-30T10:10:10;3.50;;;0.80;;
24335;SDS011;33098;52.400;16.880;2023-08-30T10:12:37;3.90;;;0.80;;
24335;SDS011;33098;52.400;16.880;2023-08-30T10:15:07;1.60;;;0.80;;
24335;SDS011;33098;52.400;16.880;2023-08-30T10:17:34;1.00;;;0.90;;
24335;SDS011;33098;52.400;16.880;2023-08-30T10:20:09;1.60;;;1.00;;
24335;SDS011;33098;52.400;16.880;2023-08-30T10:22:38;1.20;;;0.90;;
24335;SDS011;33098;52.400;16.880;2023-08-30T10:25:08;2.30;;;1.00;;
24335;SDS011;33098;52.400;16.880;2023-08-30T10:27:41;1.20;;;0.80;;
24335;SDS011;33098;52.400;16.880;2023-08-30T10:30:11;2.30;;;1.00;;
24335;SDS011;33098;52.400;16.880;2023-08-30T10:32:40;2.20;;;1.00;;
24335;SDS011;33098;52.400;16.880;2023-08-30T10:35:12;5.40;;;1.10;;
24335;SDS011;33098;52.400;16.880;2023-08-30T10:37:55;1.60;;;1.20;;
24335;SDS011;33098;52.400;16.880;2023-08-30T10:40:23;1.50;;;1.10;;
24335;SDS011;33098;52.400;16.880;2023-08-30T10:43:03;1.90;;;1.30;;
24335;SDS011;33098;52.400;16.880;2023-08-30T10:45:34;2.70;;;1.00;;
24335;SDS011;33098;52.400;16.880;2023-08-30T10:48:01;2.10;;;1.30;;
24335;SDS011;33098;52.400;16.880;2023-08-30T10:50:31;2.30;;;1.10;;
24335;SDS011;33098;52.400;16.880;2023-08-30T10:53:02;2.20;;;1.10;;
24335;SDS011;33098;52.400;16.880;2023-08-30T10:55:31;1.70;;;1.20;;
24335;SDS011;33098;52.400;16.880;2023-08-30T10:58:02;3.30;;;1.10;;
24335;SDS011;33098;52.400;16.880;2023-08-30T11:00:32;3.00;;;1.20;;
24335;SDS011;33098;52.400;16.880;2023-08-30T11:02:59;2.60;;;1.10;;
24335;SDS011;33098;52.400;16.880;2023-08-30T11:05:27;2.80;;;0.80;;
24335;SDS011;33098;52.400;16.880;2023-08-30T11:07:55;2.20;;;1.10;;
24335;SDS011;33098;52.400;16.880;2023-08-30T11:10:22;1.10;;;1.00;;
24335;SDS011;33098;52.400;16.880;2023-08-30T11:12:49;2.50;;;1.30;;
24335;SDS011;33098;52.400;16.880;2023-08-30T11:15:16;2.30;;;1.10;;
24335;SDS011;33098;52.400;16.880;2023-08-30T11:17:43;2.20;;;1.10;;
24335;SDS011;33098;52.400;16.880;2023-08-30T11:20:12;1.90;;;1.00;;
24335;SDS011;33098;52.400;16.880;2023-08-30T11:22:43;1.30;;;1.00;;
24335;SDS011;33098;52.400;16.880;2023-08-30T11:25:11;2.90;;;1.10;;
24335;SDS011;33098;52.400;16.880;2023-08-30T11:27:47;1.30;;;0.90;;
24335;SDS011;33098;52.400;16.880;2023-08-30T11:30:14;2.80;;;1.00;;
24335;SDS011;33098;52.400;16.880;2023-08-30T11:32:41;1.60;;;1.10;;
24335;SDS011;33098;52.400;16.880;2023-08-30T11:35:11;2.30;;;1.00;;
24335;SDS011;33098;52.400;16.880;2023-08-30T11:37:39;2.70;;;1.20;;
24335;SDS011;33098;52.400;16.880;2023-08-30T11:40:09;2.50;;;1.00;;
24335;SDS011;33098;52.400;16.880;2023-08-30T11:42:38;2.30;;;1.10;;
24335;SDS011;33098;52.400;16.880;2023-08-30T11:45:05;2.20;;;0.80;;
24335;SDS011;33098;52.400;16.880;2023-08-30T11:47:33;1.40;;;1.00;;
24335;SDS011;33098;52.400;16.880;2023-08-30T11:50:01;2.30;;;1.00;;
24335;SDS011;33098;52.400;16.880;2023-08-30T11:52:28;2.40;;;1.00;;
24335;SDS011;33098;52.400;16.880;2023-08-30T11:54:55;2.50;;;1.00;;
24335;SDS011;33098;52.400;16.880;2023-08-30T11:57:23;2.50;;;1.10;;
24335;SDS011;33098;52.400;16.880;2023-08-30T11:59:49;2.10;;;1.10;;
24335;SDS011;33098;52.400;16.880;2023-08-30T12:02:17;2.20;;;1.30;;
24335;SDS011;33098;52.400;16.880;2023-08-30T12:04:45;3.60;;;0.90;;
24335;SDS011;33098;52.400;16.880;2023-08-30T12:07:23;1.20;;;1.00;;
24335;SDS011;33098;52.400;16.880;2023-08-30T12:09:51;2.60;;;0.90;;
24335;SDS011;33098;52.400;16.880;2023-08-30T12:12:24;2.30;;;0.90;;
24335;SDS011;33098;52.400;16.880;2023-08-30T12:14:54;1.00;;;0.90;;
24335;SDS011;33098;52.400;16.880;2023-08-30T12:17:24;1.30;;;1.00;;
24335;SDS011;33098;52.400;16.880;2023-08-30T12:19:59;2.00;;;0.90;;
24335;SDS011;33098;52.400;16.880;2023-08-30T12:22:39;1.10;;;0.80;;
24335;SDS011;33098;52.400;16.880;2023-08-30T12:25:22;2.10;;;0.80;;
24335;SDS011;33098;52.400;16.880;2023-08-30T12:27:49;0.80;;;0.80;;
24335;SDS011;33098;52.400;16.880;2023-08-30T12:30:19;1.70;;;1.00;;
24335;SDS011;33098;52.400;16.880;2023-08-30T12:32:50;1.40;;;0.90;;
24335;SDS011;33098;52.400;16.880;2023-08-30T12:35:19;1.70;;;0.60;;
24335;SDS011;33098;52.400;16.880;2023-08-30T12:37:46;1.30;;;0.70;;
24335;SDS011;33098;52.400;16.880;2023-08-30T12:40:12;1.90;;;1.00;;
24335;SDS011;33098;52.400;16.880;2023-08-30T12:42:40;0.90;;;0.90;;
24335;SDS011;33098;52.400;16.880;2023-08-30T12:45:10;1.40;;;0.90;;
24335;SDS011;33098;52.400;16.880;2023-08-30T12:47:38;0.90;;;0.80;;
24335;SDS011;33098;52.400;16.880;2023-08-30T12:50:05;1.00;;;0.90;;
24335;SDS011;33098;52.400;16.880;2023-08-30T12:52:33;1.20;;;0.80;;
24335;SDS011;33098;52.400;16.880;2023-08-30T12:55:02;1.40;;;0.80;;
24335;SDS011;33098;52.400;16.880;2023-08-30T12:57:31;1.00;;;0.60;;
24335;SDS011;33098;52.400;16.880;2023-08-30T12:59:59;1.00;;;0.80;;
24335;SDS011;33098;52.400;16.880;2023-08-30T13:02:26;1.00;;;0.80;;
24335;SDS011;33098;52.400;16.880;2023-08-30T13:04:53;0.90;;;0.70;;
24335;SDS011;33098;52.400;16.880;2023-08-30T13:07:20;1.10;;;0.90;;
24335;SDS011;33098;52.400;16.880;2023-08-30T13:09:48;0.70;;;0.50;;
24335;SDS011;33098;52.400;16.880;2023-08-30T13:12:14;1.80;;;0.90;;
24335;SDS011;33098;52.400;16.880;2023-08-30T13:14:44;2.20;;;0.80;;
24335;SDS011;33098;52.400;16.880;2023-08-30T13:17:14;1.30;;;0.90;;
24335;SDS011;33098;52.400;16.880;2023-08-30T13:19:43;2.00;;;0.80;;
24335;SDS011;33098;52.400;16.880;2023-08-30T13:22:10;2.00;;;0.90;;
24335;SDS011;33098;52.400;16.880;2023-08-30T13:24:37;2.30;;;0.80;;
24335;SDS011;33098;52.400;16.880;2023-08-30T13:27:06;1.50;;;0.90;;
24335;SDS011;33098;52.400;16.880;2023-08-30T13:29:36;1.60;;;1.00;;
24335;SDS011;33098;52.400;16.880;2023-08-30T13:32:04;2.90;;;0.80;;
24335;SDS011;33098;52.400;16.880;2023-08-30T13:34:31;1.10;;;0.80;;
24335;SDS011;33098;52.400;16.880;2023-08-30T13:37:00;2.40;;;0.70;;
24335;SDS011;33098;52.400;16.880;2023-08-30T13:39:27;0.90;;;0.80;;
24335;SDS011;33098;52.400;16.880;2023-08-30T13:41:56;3.30;;;0.90;;
24335;SDS011;33098;52.400;16.880;2023-08-30T13:44:27;3.20;;;0.90;;
24335;SDS011;33098;52.400;16.880;2023-08-30T13:46:56;1.70;;;0.90;;
24335;SDS011;33098;52.400;16.880;2023-08-30T13:49:29;3.20;;;1.00;;
24335;SDS011;33098;52.400;16.880;2023-08-30T13:51:56;3.00;;;1.10;;
24335;SDS011;33098;52.400;16.880;2023-08-30T13:54:27;2.40;;;0.90;;
24335;SDS011;33098;52.400;16.880;2023-08-30T13:57:01;8.10;;;5.00;;
24335;SDS011;33098;52.400;16.880;2023-08-30T13:59:28;2.40;;;1.30;;
24335;SDS011;33098;52.400;16.880;2023-08-30T14:01:58;1.80;;;0.90;;
24335;SDS011;33098;52.400;16.880;2023-08-30T14:04:25;2.10;;;0.90;;
24335;SDS011;33098;52.400;16.880;2023-08-30T14:09:22;2.10;;;0.90;;
24335;SDS011;33098;52.400;16.880;2023-08-30T14:11:49;1.30;;;0.90;;
24335;SDS011;33098;52.400;16.880;2023-08-30T14:14:16;1.90;;;1.20;;
24335;SDS011;33098;52.400;16.880;2023-08-30T14:16:43;1.50;;;1.10;;
24335;SDS011;33098;52.400;16.880;2023-08-30T14:19:12;2.40;;;1.10;;
24335;SDS011;33098;52.400;16.880;2023-08-30T14:21:39;2.40;;;1.10;;
24335;SDS011;33098;52.400;16.880;2023-08-30T14:24:09;1.00;;;0.90;;
24335;SDS011;33098;52.400;16.880;2023-08-30T14:26:36;2.60;;;1.10;;
24335;SDS011;33098;52.400;16.880;2023-08-30T14:29:02;2.10;;;1.10;;
24335;SDS011;33098;52.400;16.880;2023-08-30T14:31:32;2.00;;;1.40;;
24335;SDS011;33098;52.400;16.880;2023-08-30T14:34:02;2.80;;;1.40;;
24335;SDS011;33098;52.400;16.880;2023-08-30T14:36:28;1.60;;;1.30;;
24335;SDS011;33098;52.400;16.880;2023-08-30T14:38:56;1.80;;;1.50;;
24335;SDS011;33098;52.400;16.880;2023-08-30T14:41:25;1.60;;;1.50;;
24335;SDS011;33098;52.400;16.880;2023-08-30T14:43:57;2.10;;;1.50;;
24335;SDS011;33098;52.400;16.880;2023-08-30T14:46:24;2.40;;;1.80;;
24335;SDS011;33098;52.400;16.880;2023-08-30T14:48:54;5.00;;;2.00;;
24335;SDS011;33098;52.400;16.880;2023-08-30T14:51:24;2.00;;;1.80;;
24335;SDS011;33098;52.400;16.880;2023-08-30T14:53:51;2.60;;;1.70;;
24335;SDS011;33098;52.400;16.880;2023-08-30T14:56:21;1.90;;;1.70;;
24335;SDS011;33098;52.400;16.880;2023-08-30T14:58:47;1.60;;;1.50;;
24335;SDS011;33098;52.400;16.880;2023-08-30T15:01:17;1.90;;;1.50;;
24335;SDS011;33098;52.400;16.880;2023-08-30T15:03:44;2.20;;;1.70;;
24335;SDS011;33098;52.400;16.880;2023-08-30T15:06:11;1.80;;;1.40;;
24335;SDS011;33098;52.400;16.880;2023-08-30T15:08:38;2.20;;;1.60;;